Time;durP1;ratioP1;P1;durP2;ratioP2;P2;SDS_P1;SDS_P2;PMS_P1;PMS_P2;Temp;Humidity;BMP_temperature;BMP_pressure;BME280_temperature;BME280_humidity;BME280_pressure;Samples;Min_cycle;Max_cycle;Signal;HPM_P1;HPM_P2
2022/03/18 00:02:23;;;;;;;16.00;6.70;;;2.70;99.90;;;;;;4973625;28;37073;-76
2022/03/18 00:04:51;;;;;;;16.83;8.20;;;2.70;99.90;;;;;;4979124;28;37069;-75
2022/03/18 00:07:20;;;;;;;15.20;7.93;;;2.60;99.90;;;;;;4979159;28;38862;-76
2022/03/18 00:09:50;;;;;;;14.87;7.57;;;2.60;99.90;;;;;;4981410;28;38622;-75
2022/03/18 00:12:16;;;;;;;17.93;7.97;;;2.70;99.90;;;;;;4978578;28;38981;-75
2022/03/18 00:14:43;;;;;;;15.27;7.47;;;2.70;99.90;;;;;;4983591;28;37884;-75
2022/03/18 00:17:11;;;;;;;17.10;7.60;;;2.70;99.90;;;;;;4982545;28;39818;-75
2022/03/18 00:19:38;;;;;;;14.70;7.20;;;2.70;99.90;;;;;;4985085;28;39562;-75
2022/03/18 00:22:06;;;;;;;16.70;7.77;;;2.60;99.90;;;;;;4966411;28;38715;-75
2022/03/18 00:24:33;;;;;;;22.27;9.33;;;2.60;99.90;;;;;;4982069;28;38113;-75
2022/03/18 00:26:59;;;;;;;22.13;7.90;;;2.60;99.90;;;;;;4979083;28;40215;-75
2022/03/18 00:29:26;;;;;;;15.63;8.33;;;2.60;99.90;;;;;;4978688;28;38374;-75
2022/03/18 00:31:55;;;;;;;13.07;6.67;;;2.60;99.90;;;;;;4979599;28;39536;-76
2022/03/18 00:34:22;;;;;;;19.00;7.50;;;2.50;99.90;;;;;;4961079;28;36921;-75
2022/03/18 00:36:48;;;;;;;19.57;8.37;;;2.40;99.90;;;;;;4978348;28;40479;-76
2022/03/18 00:39:14;;;;;;;16.57;7.27;;;2.40;99.90;;;;;;4980760;28;39377;-75
2022/03/18 00:41:41;;;;;;;22.97;8.77;;;2.40;99.90;;;;;;4982806;28;40263;-76
2022/03/18 00:44:08;;;;;;;22.60;7.43;;;2.40;99.90;;;;;;4964918;28;37972;-75
2022/03/18 00:46:34;;;;;;;19.37;7.90;;;2.40;99.90;;;;;;4981519;28;39104;-75
2022/03/18 00:52:06;;;;;;;16.93;7.50;;;2.50;99.90;;;;;;4980304;28;50291;-75
2022/03/18 00:54:43;;;;;;;13.60;7.20;;;2.50;99.90;;;;;;4961884;28;47579;-75
2022/03/18 00:57:10;;;;;;;18.53;8.27;;;2.50;99.90;;;;;;4978467;28;37618;-76
2022/03/18 00:59:37;;;;;;;17.77;7.07;;;2.50;99.90;;;;;;4980032;28;38519;-75
2022/03/18 01:02:03;;;;;;;16.23;7.33;;;2.40;99.90;;;;;;4978735;28;37130;-75
2022/03/18 01:04:29;;;;;;;25.03;9.10;;;2.40;99.90;;;;;;4981988;28;36489;-75
2022/03/18 01:06:56;;;;;;;21.33;8.63;;;2.40;99.90;;;;;;4962927;28;38834;-75
2022/03/18 01:09:23;;;;;;;20.67;8.13;;;2.30;99.90;;;;;;4980992;28;38427;-75
2022/03/18 01:11:51;;;;;;;17.67;8.03;;;2.30;99.90;;;;;;4963567;28;36726;-76
2022/03/18 01:14:18;;;;;;;17.23;8.10;;;2.20;99.90;;;;;;4965537;28;38000;-76
2022/03/18 01:16:44;;;;;;;15.40;7.57;;;2.10;99.90;;;;;;4973195;28;37825;-76
2022/03/18 01:19:11;;;;;;;16.47;7.87;;;2.10;99.90;;;;;;4965850;28;38297;-75
2022/03/18 01:21:38;;;;;;;15.83;7.10;;;2.00;99.90;;;;;;4983036;28;36850;-75
2022/03/18 01:24:04;;;;;;;18.63;7.70;;;2.10;99.90;;;;;;4976679;28;37735;-76
2022/03/18 01:26:30;;;;;;;17.23;8.83;;;2.00;99.90;;;;;;4977575;28;38002;-75
2022/03/18 01:28:58;;;;;;;19.50;8.20;;;2.00;99.90;;;;;;4984285;28;38271;-75
2022/03/18 01:31:26;;;;;;;15.10;7.77;;;1.90;99.90;;;;;;4962911;28;38552;-76
2022/03/18 01:33:53;;;;;;;16.20;7.23;;;2.00;99.90;;;;;;4976826;28;35963;-76
2022/03/18 01:36:19;;;;;;;16.97;8.70;;;2.00;99.90;;;;;;4976804;28;39479;-75
2022/03/18 01:38:45;;;;;;;16.90;8.13;;;2.00;99.90;;;;;;4978837;28;38754;-76
2022/03/18 01:41:12;;;;;;;18.40;8.97;;;2.00;99.90;;;;;;4977125;28;39524;-75
2022/03/18 01:43:44;;;;;;;16.00;8.20;;;2.10;99.90;;;;;;4962094;28;36392;-76
2022/03/18 01:46:12;;;;;;;19.00;8.60;;;2.10;99.90;;;;;;4976157;28;38939;-75
2022/03/18 01:48:38;;;;;;;15.37;8.07;;;2.00;99.90;;;;;;4972005;28;37521;-75
2022/03/18 01:51:05;;;;;;;19.13;8.53;;;1.90;99.90;;;;;;4975584;28;38066;-76
2022/03/18 01:53:33;;;;;;;18.80;9.50;;;1.90;99.90;;;;;;4980349;28;38637;-75
2022/03/18 01:56:00;;;;;;;23.17;9.03;;;1.90;99.90;;;;;;4960695;28;37970;-75
2022/03/18 01:58:26;;;;;;;15.17;7.90;;;1.90;99.90;;;;;;4958171;28;37281;-75
2022/03/18 02:00:52;;;;;;;15.20;8.07;;;1.90;99.90;;;;;;4957796;28;37297;-75
2022/03/18 02:03:18;;;;;;;26.27;9.13;;;1.90;99.90;;;;;;4951528;28;37591;-75
2022/03/18 02:05:44;;;;;;;17.73;8.70;;;1.90;99.90;;;;;;4972100;28;37522;-75
2022/03/18 02:08:11;;;;;;;15.77;6.93;;;1.90;99.90;;;;;;4958572;28;37069;-75
2022/03/18 02:10:38;;;;;;;11.60;7.23;;;1.90;99.90;;;;;;4973148;28;36796;-75
2022/03/18 02:13:04;;;;;;;14.63;7.87;;;1.90;99.90;;;;;;4957629;28;37290;-75
2022/03/18 02:15:30;;;;;;;19.00;8.03;;;1.80;99.90;;;;;;4960934;28;37835;-75
2022/03/18 02:17:56;;;;;;;14.70;6.77;;;1.80;99.90;;;;;;4981368;28;38332;-75
2022/03/18 02:20:23;;;;;;;15.13;7.30;;;1.80;99.90;;;;;;4979956;28;37245;-75
2022/03/18 02:22:50;;;;;;;12.33;7.23;;;1.80;99.90;;;;;;4972277;28;36189;-75
2022/03/18 02:25:16;;;;;;;11.50;6.77;;;1.70;99.90;;;;;;4959158;28;39884;-75
2022/03/18 02:27:58;;;;;;;11.13;7.10;;;1.70;99.90;;;;;;4961720;28;37346;-75
2022/03/18 02:30:28;;;;;;;15.75;8.07;;;1.70;99.90;;;;;;4962364;28;37525;-75
2022/03/18 02:32:55;;;;;;;19.93;7.40;;;1.70;99.90;;;;;;4960350;28;37057;-75
2022/03/18 02:35:21;;;;;;;20.73;8.47;;;1.60;99.90;;;;;;4959156;28;39234;-75
2022/03/18 02:37:47;;;;;;;16.93;8.70;;;1.60;99.90;;;;;;4976177;28;37023;-75
2022/03/18 02:40:17;;;;;;;13.00;7.07;;;1.60;99.90;;;;;;4961856;28;38112;-75
2022/03/18 02:42:44;;;;;;;15.40;8.23;;;1.60;99.90;;;;;;4958621;28;36280;-75
2022/03/18 02:45:11;;;;;;;16.00;8.07;;;1.60;99.90;;;;;;4956109;28;40428;-75
2022/03/18 02:47:37;;;;;;;20.07;8.57;;;1.60;99.90;;;;;;4972413;28;38232;-75
2022/03/18 02:50:05;;;;;;;15.50;7.30;;;1.60;99.90;;;;;;4956510;28;36926;-75
2022/03/18 02:52:31;;;;;;;18.47;8.03;;;1.60;99.90;;;;;;4956654;28;38264;-75
2022/03/18 02:54:57;;;;;;;18.67;7.70;;;1.60;99.90;;;;;;4959698;28;39952;-75
2022/03/18 02:57:23;;;;;;;13.50;7.60;;;1.50;99.90;;;;;;4958971;28;39053;-75
2022/03/18 02:59:50;;;;;;;16.00;7.63;;;1.50;99.90;;;;;;4958482;28;36814;-75
2022/03/18 03:02:16;;;;;;;15.50;7.53;;;1.50;99.90;;;;;;4956389;28;37136;-75
2022/03/18 03:10:11;;;;;;;13.07;7.43;;;1.50;99.90;;;;;;4959338;28;38763;-75
2022/03/18 03:12:41;;;;;;;13.07;7.73;;;1.50;99.90;;;;;;4959663;28;36088;-75
2022/03/18 03:15:08;;;;;;;16.60;7.80;;;1.50;99.90;;;;;;4959146;28;38644;-74
2022/03/18 03:17:34;;;;;;;20.23;8.17;;;1.50;99.90;;;;;;4957643;28;39397;-75
2022/03/18 03:20:01;;;;;;;15.70;8.10;;;1.40;99.90;;;;;;4944642;28;38671;-75
2022/03/18 03:22:30;;;;;;;14.87;7.40;;;1.40;99.90;;;;;;4961056;28;50055;-75
2022/03/18 03:24:56;;;;;;;13.67;7.57;;;1.40;99.90;;;;;;4964233;28;38881;-75
2022/03/18 03:27:29;;;;;;;17.90;7.60;;;1.40;99.90;;;;;;4961262;28;39112;-75
2022/03/18 03:30:00;;;;;;;19.17;9.40;;;1.40;99.90;;;;;;4956122;28;37357;-75
2022/03/18 03:32:27;;;;;;;15.83;8.07;;;1.40;99.90;;;;;;4957181;28;38412;-75
2022/03/18 03:34:55;;;;;;;21.43;8.37;;;1.40;99.90;;;;;;4942713;28;39038;-75
2022/03/18 03:37:21;;;;;;;15.13;8.37;;;1.40;99.90;;;;;;4958223;28;39935;-75
2022/03/18 03:39:47;;;;;;;19.07;8.60;;;1.50;99.90;;;;;;4943883;28;39581;-75
2022/03/18 03:42:13;;;;;;;15.43;8.40;;;1.60;99.90;;;;;;4961111;28;37862;-75
2022/03/18 03:44:39;;;;;;;18.07;8.33;;;1.60;99.90;;;;;;4966355;28;39336;-75
2022/03/18 03:47:06;;;;;;;19.13;9.20;;;1.50;99.90;;;;;;4948958;28;39088;-77
2022/03/18 03:49:32;;;;;;;14.60;8.47;;;1.50;99.90;;;;;;4966741;28;37808;-75
2022/03/18 03:51:58;;;;;;;12.37;7.60;;;1.40;99.90;;;;;;4965888;28;37304;-76
2022/03/18 03:54:24;;;;;;;21.93;8.63;;;1.40;99.90;;;;;;4962499;28;39463;-75
2022/03/18 03:56:50;;;;;;;19.70;8.63;;;1.40;99.90;;;;;;4981421;28;38484;-75
2022/03/18 03:59:16;;;;;;;17.00;8.57;;;1.40;99.90;;;;;;4975645;28;38978;-75
2022/03/18 04:01:42;;;;;;;16.97;7.87;;;1.40;99.90;;;;;;4978656;28;38504;-75
2022/03/18 04:04:08;;;;;;;19.13;9.33;;;1.30;99.90;;;;;;4961201;28;40340;-75
2022/03/18 04:06:34;;;;;;;15.93;7.80;;;1.20;99.90;;;;;;4980163;28;38037;-75
2022/03/18 04:09:00;;;;;;;15.97;8.87;;;1.30;99.90;;;;;;4962300;28;38216;-75
2022/03/18 04:11:26;;;;;;;12.60;7.10;;;1.20;99.90;;;;;;4979339;28;37293;-75
2022/03/18 04:13:52;;;;;;;18.80;8.87;;;1.20;99.90;;;;;;4980099;28;38602;-75
2022/03/18 04:16:19;;;;;;;14.53;8.13;;;1.20;99.90;;;;;;4980553;28;38829;-75
2022/03/18 04:18:45;;;;;;;18.67;8.50;;;1.10;99.90;;;;;;4977282;28;38990;-75
2022/03/18 04:21:11;;;;;;;20.37;9.23;;;1.20;99.90;;;;;;4979586;28;38530;-75
2022/03/18 04:23:37;;;;;;;16.13;9.13;;;1.20;99.90;;;;;;4982627;28;39350;-75
2022/03/18 04:26:03;;;;;;;16.27;9.73;;;1.20;99.90;;;;;;4981760;28;38328;-75
2022/03/18 04:28:29;;;;;;;15.53;8.07;;;1.10;99.90;;;;;;4982471;28;38670;-75
2022/03/18 04:30:55;;;;;;;18.87;9.50;;;1.10;99.90;;;;;;4978513;28;36372;-75
2022/03/18 04:33:21;;;;;;;16.33;7.50;;;1.10;99.90;;;;;;4977977;28;38840;-75
2022/03/18 04:35:47;;;;;;;19.63;8.50;;;1.20;99.90;;;;;;4962901;28;38506;-74
2022/03/18 04:38:13;;;;;;;20.67;8.57;;;1.10;99.90;;;;;;4974232;28;38267;-74
2022/03/18 04:40:40;;;;;;;15.97;8.67;;;1.10;99.90;;;;;;4963137;28;37595;-74
2022/03/18 04:43:06;;;;;;;14.10;7.83;;;1.10;99.90;;;;;;4984490;28;38849;-74
2022/03/18 04:45:32;;;;;;;13.03;7.47;;;1.10;99.90;;;;;;4976027;28;39215;-75
2022/03/18 04:47:58;;;;;;;21.83;9.37;;;1.10;99.90;;;;;;4962350;28;39686;-75
2022/03/18 04:50:24;;;;;;;14.83;8.97;;;1.10;99.90;;;;;;4979845;28;35921;-75
2022/03/18 04:52:50;;;;;;;22.63;9.07;;;1.00;99.90;;;;;;4979039;28;39554;-75
2022/03/18 04:55:16;;;;;;;20.30;9.83;;;1.00;99.90;;;;;;4977713;28;37207;-74
2022/03/18 04:57:42;;;;;;;17.13;8.63;;;1.00;99.90;;;;;;4978949;28;39972;-75
2022/03/18 05:00:09;;;;;;;14.13;7.93;;;1.10;99.90;;;;;;4976952;28;37092;-74
2022/03/18 05:02:36;;;;;;;20.70;9.50;;;1.10;99.90;;;;;;4964803;28;47226;-74
2022/03/18 05:05:04;;;;;;;17.47;8.63;;;1.00;99.90;;;;;;4980884;28;39360;-74
2022/03/18 05:07:30;;;;;;;17.60;8.57;;;1.00;99.90;;;;;;4982084;28;38373;-74
2022/03/18 05:09:56;;;;;;;15.33;9.47;;;0.90;99.90;;;;;;4960459;28;38870;-75
2022/03/18 05:12:22;;;;;;;18.17;8.53;;;0.90;99.90;;;;;;4978496;28;39601;-74
2022/03/18 05:14:49;;;;;;;15.73;8.60;;;0.80;99.90;;;;;;4978350;28;39225;-75
2022/03/18 05:17:15;;;;;;;16.27;8.50;;;0.90;99.90;;;;;;4961046;28;38520;-75
2022/03/18 05:19:41;;;;;;;14.90;8.30;;;1.00;99.90;;;;;;4977746;28;37056;-74
2022/03/18 05:22:08;;;;;;;18.37;7.67;;;0.90;99.90;;;;;;4960905;28;38920;-75
2022/03/18 05:24:35;;;;;;;17.23;8.03;;;0.80;99.90;;;;;;4983684;28;38093;-75
2022/03/18 05:27:02;;;;;;;17.97;8.27;;;0.80;99.90;;;;;;4983772;28;39212;-74
2022/03/18 05:29:28;;;;;;;16.53;7.80;;;0.80;99.90;;;;;;4981240;28;49781;-74
2022/03/18 05:31:55;;;;;;;15.93;8.57;;;0.80;99.90;;;;;;4961903;28;40811;-76
2022/03/18 05:34:22;;;;;;;19.83;9.63;;;0.70;99.90;;;;;;4976592;28;38454;-76
2022/03/18 05:36:48;;;;;;;18.03;9.73;;;0.70;99.90;;;;;;4976266;28;37949;-76
2022/03/18 05:39:14;;;;;;;17.07;9.50;;;0.70;99.90;;;;;;4958096;28;36153;-76
2022/03/18 05:41:43;;;;;;;24.27;10.87;;;0.80;99.90;;;;;;4960128;28;40180;-76
2022/03/18 05:44:10;;;;;;;21.33;11.17;;;0.80;99.90;;;;;;4971146;28;38480;-74
2022/03/18 05:46:36;;;;;;;19.60;10.13;;;0.80;99.90;;;;;;4976897;28;39049;-76
2022/03/18 05:49:03;;;;;;;18.97;11.40;;;0.80;99.90;;;;;;4972284;28;37686;-74
2022/03/18 05:51:30;;;;;;;21.00;10.73;;;0.70;99.90;;;;;;4976016;28;41402;-75
2022/03/18 05:53:57;;;;;;;19.53;10.13;;;0.70;99.90;;;;;;4973228;28;38435;-74
2022/03/18 05:59:10;;;;;;;21.60;10.67;;;0.80;99.90;;;;;;4959100;28;39011;-76
2022/03/18 06:01:37;;;;;;;20.13;10.97;;;0.90;99.90;;;;;;4958295;28;38744;-77
2022/03/18 06:04:05;;;;;;;20.60;10.47;;;0.90;99.90;;;;;;4972353;28;37530;-79
2022/03/18 06:06:31;;;;;;;24.60;11.00;;;0.90;99.90;;;;;;4971431;28;40002;-78
2022/03/18 06:11:51;;;;;;;22.60;12.07;;;1.00;99.90;;;;;;4959397;28;49202;-75
2022/03/18 06:14:19;;;;;;;26.23;13.23;;;1.10;99.90;;;;;;4959366;28;38568;-76
2022/03/18 06:16:47;;;;;;;22.70;12.73;;;1.00;99.90;;;;;;4960205;28;37197;-75
2022/03/18 06:19:18;;;;;;;23.10;11.80;;;1.00;99.90;;;;;;4953740;28;39843;-76
2022/03/18 06:21:47;;;;;;;24.10;12.17;;;1.00;99.90;;;;;;4957871;28;39033;-76
2022/03/18 06:24:14;;;;;;;22.73;13.33;;;1.00;99.90;;;;;;4974556;28;39083;-76
2022/03/18 06:26:41;;;;;;;22.10;12.10;;;1.00;99.90;;;;;;4954714;28;39032;-76
2022/03/18 06:29:07;;;;;;;21.93;11.97;;;1.10;99.90;;;;;;4971131;28;36056;-76
2022/03/18 06:31:35;;;;;;;21.77;12.53;;;1.20;99.90;;;;;;4955538;28;39705;-75
2022/03/18 06:34:03;;;;;;;20.43;11.83;;;1.20;99.90;;;;;;4955843;28;38541;-76
2022/03/18 06:36:30;;;;;;;20.80;12.37;;;1.20;99.90;;;;;;4961032;28;48716;-75
2022/03/18 06:38:56;;;;;;;22.77;13.93;;;1.20;99.90;;;;;;4976803;28;38813;-75
2022/03/18 06:41:22;;;;;;;20.03;13.57;;;1.20;99.90;;;;;;4968826;28;42709;-76
2022/03/18 06:43:49;;;;;;;22.93;12.07;;;1.20;99.90;;;;;;4971975;28;39359;-75
2022/03/18 06:46:16;;;;;;;20.90;13.63;;;1.40;99.90;;;;;;4957122;28;39018;-76
2022/03/18 06:48:42;;;;;;;29.10;15.63;;;1.40;99.90;;;;;;4975356;28;38234;-76
2022/03/18 06:51:09;;;;;;;25.53;15.53;;;1.50;99.90;;;;;;4958157;28;39320;-76
2022/03/18 06:53:35;;;;;;;24.97;14.13;;;1.50;99.90;;;;;;4958537;28;38524;-76
2022/03/18 06:56:04;;;;;;;24.80;15.07;;;1.60;99.90;;;;;;4972243;28;37597;-76
2022/03/18 06:58:31;;;;;;;29.90;16.37;;;1.70;99.90;;;;;;4964593;28;37404;-76
2022/03/18 07:00:57;;;;;;;24.77;15.23;;;1.70;99.90;;;;;;4984681;28;39711;-76
2022/03/18 07:03:23;;;;;;;28.07;16.20;;;1.70;99.90;;;;;;4981084;28;39307;-77
2022/03/18 07:05:49;;;;;;;26.43;15.13;;;2.10;99.90;;;;;;4981267;28;38739;-76
2022/03/18 07:08:16;;;;;;;25.07;15.53;;;2.10;99.90;;;;;;4981279;28;37671;-76
2022/03/18 07:10:42;;;;;;;24.27;16.03;;;2.20;99.90;;;;;;4970422;28;39537;-77
2022/03/18 07:13:08;;;;;;;31.30;20.13;;;2.20;99.90;;;;;;4967526;28;39952;-76
2022/03/18 07:15:34;;;;;;;30.13;18.67;;;2.30;99.90;;;;;;4979578;28;39002;-77
2022/03/18 07:18:02;;;;;;;30.90;18.77;;;2.40;99.90;;;;;;4964883;28;39206;-76
2022/03/18 07:20:33;;;;;;;28.23;18.43;;;2.40;99.90;;;;;;4982624;28;47040;-76
2022/03/18 07:23:16;;;;;;;29.50;18.80;;;2.50;99.90;;;;;;4967600;28;37010;-77
2022/03/18 07:25:44;;;;;;;28.50;17.40;;;2.70;99.90;;;;;;4969302;28;47651;-76
2022/03/18 07:28:13;;;;;;;41.53;22.53;;;2.80;99.90;;;;;;4987351;28;37534;-76
2022/03/18 07:30:41;;;;;;;35.07;20.03;;;3.10;99.90;;;;;;4982924;28;39605;-77
2022/03/18 07:33:07;;;;;;;41.97;22.23;;;3.20;99.90;;;;;;4982730;28;38371;-78
2022/03/18 07:35:34;;;;;;;42.43;24.40;;;3.50;99.90;;;;;;4991532;28;38686;-78
2022/03/18 07:38:01;;;;;;;26.60;17.10;;;3.80;99.90;;;;;;4984716;28;37733;-79
2022/03/18 07:40:27;;;;;;;42.97;24.23;;;4.10;99.90;;;;;;4967562;28;46172;-78
2022/03/18 07:42:55;;;;;;;30.03;19.17;;;4.20;99.90;;;;;;4953573;28;39473;-80
2022/03/18 07:45:27;;;;;;;41.03;22.47;;;4.20;99.90;;;;;;4979957;28;38310;-78
2022/03/18 07:47:57;;;;;;;33.70;19.27;;;4.20;99.90;;;;;;4978597;28;37385;-78
2022/03/18 07:50:25;;;;;;;35.10;21.03;;;4.30;99.90;;;;;;4981790;28;38586;-78
2022/03/18 07:52:57;;;;;;;33.60;20.13;;;4.60;99.90;;;;;;4985638;28;38377;-78
2022/03/18 07:55:25;;;;;;;36.23;20.00;;;4.60;99.90;;;;;;4977488;28;36760;-79
2022/03/18 07:57:53;;;;;;;30.03;16.80;;;4.80;99.90;;;;;;4981431;28;37811;-78
2022/03/18 08:00:20;;;;;;;24.43;14.77;;;4.90;99.90;;;;;;4967017;28;38878;-78
2022/03/18 08:02:49;;;;;;;31.93;16.93;;;5.00;99.90;;;;;;4948391;28;38900;-78
2022/03/18 08:05:16;;;;;;;34.83;17.20;;;5.00;99.90;;;;;;4975817;28;37331;-78
2022/03/18 08:07:44;;;;;;;27.37;15.80;;;5.00;99.90;;;;;;4966680;28;37876;-78
2022/03/18 08:10:11;;;;;;;22.00;14.93;;;5.10;99.90;;;;;;4980110;28;39531;-78
2022/03/18 08:12:40;;;;;;;28.83;15.30;;;5.20;99.90;;;;;;4980256;28;39356;-78
2022/03/18 08:15:09;;;;;;;23.53;14.57;;;5.40;99.90;;;;;;4975499;28;37735;-78
2022/03/18 08:17:38;;;;;;;25.87;13.50;;;5.50;99.90;;;;;;4980612;28;38501;-78
2022/03/18 08:20:06;;;;;;;23.50;13.10;;;5.60;99.90;;;;;;4978983;28;37806;-77
2022/03/18 08:22:32;;;;;;;17.03;11.33;;;5.70;99.90;;;;;;4978244;28;36773;-78
2022/03/18 08:24:58;;;;;;;21.57;10.87;;;5.70;99.90;;;;;;4981427;28;37811;-78
2022/03/18 08:27:24;;;;;;;21.90;10.83;;;5.70;99.90;;;;;;4985134;28;37454;-79
2022/03/18 08:29:50;;;;;;;15.03;8.07;;;5.80;99.90;;;;;;4981844;28;39378;-78
2022/03/18 08:32:16;;;;;;;16.97;7.93;;;5.90;99.90;;;;;;4980363;28;39012;-78
2022/03/18 08:34:43;;;;;;;15.57;8.60;;;6.00;99.90;;;;;;4984137;28;37942;-78
2022/03/18 08:37:10;;;;;;;12.13;5.47;;;6.20;99.90;;;;;;4962365;28;38939;-78
2022/03/18 08:39:36;;;;;;;15.07;8.43;;;6.50;99.90;;;;;;4984614;28;38863;-78
2022/03/18 08:42:03;;;;;;;12.47;5.87;;;6.60;99.90;;;;;;4984478;28;38332;-78
2022/03/18 08:44:29;;;;;;;19.23;7.60;;;6.80;99.90;;;;;;4982622;28;37692;-79
2022/03/18 08:46:56;;;;;;;17.03;7.10;;;6.90;99.90;;;;;;4983968;28;37958;-79
2022/03/18 08:49:22;;;;;;;17.63;7.90;;;7.10;99.90;;;;;;4980323;28;39342;-78
2022/03/18 08:51:48;;;;;;;15.17;7.27;;;7.20;99.90;;;;;;4970731;28;37440;-78
2022/03/18 08:54:14;;;;;;;15.73;6.03;;;7.50;99.90;;;;;;4985226;28;38299;-78
2022/03/18 08:56:40;;;;;;;16.60;6.03;;;8.20;99.90;;;;;;4983648;28;38892;-78
2022/03/18 08:59:06;;;;;;;15.63;6.77;;;8.40;99.90;;;;;;4985088;28;39647;-78
2022/03/18 09:01:34;;;;;;;15.17;6.50;;;8.40;99.90;;;;;;4973896;28;38013;-79
2022/03/18 09:04:00;;;;;;;17.03;6.57;;;8.40;99.90;;;;;;4991242;28;38167;-77
2022/03/18 09:06:26;;;;;;;19.50;7.07;;;8.50;99.90;;;;;;4974001;28;37252;-78
2022/03/18 09:08:53;;;;;;;16.70;7.23;;;8.70;99.90;;;;;;4989231;28;40118;-77
2022/03/18 09:11:19;;;;;;;15.17;7.17;;;8.80;99.90;;;;;;4991712;28;38558;-77
2022/03/18 09:13:45;;;;;;;16.53;6.73;;;9.00;99.90;;;;;;4975115;28;37855;-77
2022/03/18 09:16:12;;;;;;;12.00;6.60;;;9.20;99.90;;;;;;4987124;28;37825;-77
2022/03/18 09:18:38;;;;;;;14.03;5.87;;;9.40;99.90;;;;;;4972689;28;38549;-78
2022/03/18 09:21:04;;;;;;;13.73;6.93;;;9.60;99.90;;;;;;4983744;28;39359;-77
2022/03/18 09:23:30;;;;;;;11.93;7.37;;;9.80;99.90;;;;;;4992950;28;35771;-77
2022/03/18 09:25:57;;;;;;;12.17;6.77;;;9.80;99.90;;;;;;4974394;28;38933;-77
2022/03/18 09:28:23;;;;;;;12.67;7.07;;;9.90;99.90;;;;;;4990585;28;39409;-77
2022/03/18 09:30:50;;;;;;;17.07;6.40;;;9.90;99.90;;;;;;4990876;28;38198;-78
2022/03/18 09:33:16;;;;;;;16.30;6.70;;;10.00;99.90;;;;;;4989407;28;38963;-76
2022/03/18 09:35:43;;;;;;;14.80;5.60;;;10.30;99.90;;;;;;4976830;28;37754;-77
2022/03/18 09:38:09;;;;;;;14.53;5.70;;;10.60;99.90;;;;;;4992377;28;39691;-77
2022/03/18 09:40:37;;;;;;;14.50;5.37;;;10.70;99.90;;;;;;4977518;28;39780;-77
2022/03/18 09:43:05;;;;;;;12.30;6.00;;;10.90;99.90;;;;;;4976382;28;39154;-77
2022/03/18 09:45:37;;;;;;;14.83;5.30;;;11.00;99.90;;;;;;4988278;28;37712;-77
2022/03/18 09:48:10;;;;;;;15.07;4.80;;;11.30;99.90;;;;;;4989047;28;40196;-77
2022/03/18 09:50:40;;;;;;;;;;;11.50;99.90;;;;;;4992256;28;39303;-77
2022/03/18 09:53:07;;;;;;;16.60;5.40;;;11.60;99.90;;;;;;4986752;28;36762;-78
2022/03/18 09:55:37;;;;;;;15.43;4.65;;;11.70;99.90;;;;;;4985225;28;20107;-76
2022/03/18 09:58:04;;;;;;;14.82;4.45;;;11.80;99.90;;;;;;4970923;28;39869;-76
2022/03/18 10:00:30;;;;;;;15.70;5.22;;;12.00;99.90;;;;;;4971177;28;38590;-79
2022/03/18 10:03:17;;;;;;;13.20;5.13;;;12.00;99.90;;;;;;4968376;28;38004;-80
2022/03/18 10:06:11;;;;;;;11.73;4.45;;;12.10;99.90;;;;;;4968027;28;48875;-80
2022/03/18 10:08:42;;;;;;;9.32;4.03;;;12.30;99.90;;;;;;4978769;28;47276;-78
2022/03/18 10:11:15;;;;;;;10.85;3.47;;;12.60;99.90;;;;;;4963518;28;39318;-80
2022/03/18 10:13:51;;;;;;;;;;;12.80;99.90;;;;;;4966453;28;38330;-78
2022/03/18 10:16:38;;;;;;;11.05;3.53;;;12.80;99.90;;;;;;4979715;28;37893;-79
2022/03/18 10:19:12;;;;;;;20.02;4.10;;;13.00;99.90;;;;;;4968781;28;41710;-79
2022/03/18 10:21:59;;;;;;;15.32;4.35;;;13.10;99.90;;;;;;4960136;28;39033;-80
2022/03/18 10:24:32;;;;;;;14.82;4.43;;;13.20;99.90;;;;;;4965096;28;39734;-80
2022/03/18 10:27:14;;;;;;;12.70;3.42;;;13.30;99.90;;;;;;4961811;28;37321;-78
2022/03/18 10:29:52;;;;;;;11.75;3.90;;;13.60;99.90;;;;;;4961028;28;49032;-80
2022/03/18 10:32:20;;;;;;;12.75;3.92;;;13.80;99.90;;;;;;4964812;28;40415;-80
2022/03/18 10:37:50;;;;;;;5.78;2.83;;;13.90;99.90;;;;;;4964375;28;49100;-79
2022/03/18 10:40:30;;;;;;;10.48;3.90;;;14.10;99.90;;;;;;4967465;28;38590;-80
2022/03/18 10:42:58;;;;;;;11.18;3.50;;;14.20;99.90;;;;;;4968538;28;38930;-79
2022/03/18 10:45:24;;;;;;;10.98;3.60;;;14.30;99.90;;;;;;4960569;28;38532;-80
2022/03/18 10:47:51;;;;;;;6.90;3.35;;;14.30;99.90;;;;;;4960137;28;36685;-80
2022/03/18 10:50:21;;;;;;;10.20;3.78;;;14.30;99.90;;;;;;4973610;28;40548;-80
2022/03/18 10:52:47;;;;;;;10.30;3.22;;;14.40;99.90;;;;;;4965041;28;39793;-79
2022/03/18 10:55:20;;;;;;;13.82;3.70;;;14.40;99.90;;;;;;4965951;28;37461;-77
2022/03/18 10:57:51;;;;;;;10.73;2.75;;;14.60;99.90;;;;;;4981203;28;37391;-77
2022/03/18 11:00:18;;;;;;;11.48;3.33;;;14.70;99.90;;;;;;4981381;28;39366;-78
2022/03/18 11:02:47;;;;;;;10.77;3.15;;;14.70;99.90;;;;;;4963595;28;38877;-77
2022/03/18 11:05:14;;;;;;;7.32;2.72;;;14.70;99.90;;;;;;4978676;28;38991;-78
2022/03/18 11:07:43;;;;;;;8.07;2.97;;;14.80;99.90;;;;;;4979300;28;36747;-78
2022/03/18 11:12:56;;;;;;;7.68;3.10;;;15.10;99.90;;;;;;4979166;28;39166;-78
2022/03/18 11:15:25;;;;;;;11.50;3.05;;;15.10;99.90;;;;;;4962281;28;38903;-77
2022/03/18 11:17:55;;;;;;;10.02;2.85;;;15.00;99.90;;;;;;4977561;28;35138;-77
2022/03/18 11:20:24;;;;;;;12.02;3.45;;;15.10;99.90;;;;;;4983579;28;39401;-77
2022/03/18 11:22:50;;;;;;;8.93;3.85;;;15.20;99.90;;;;;;4979694;28;38478;-78
2022/03/18 11:25:17;;;;;;;7.82;2.92;;;15.20;99.90;;;;;;4967859;28;38590;-77
2022/03/18 11:27:44;;;;;;;7.18;3.20;;;15.30;99.90;;;;;;4982813;28;38945;-77
2022/03/18 11:30:25;;;;;;;11.82;3.83;;;15.30;99.90;;;;;;4978084;28;39492;-77
2022/03/18 11:33:09;;;;;;;8.50;3.25;;;15.50;99.90;;;;;;4981760;28;38409;-78
2022/03/18 11:35:48;;;;;;;12.60;4.00;;;15.50;99.90;;;;;;4958308;28;48590;-78
2022/03/18 11:38:18;;;;;;;7.78;3.40;;;15.50;99.90;;;;;;4975788;28;36944;-78
2022/03/18 11:40:59;;;;;;;10.77;3.55;;;15.70;99.90;;;;;;4976122;28;38905;-78
2022/03/18 11:43:39;;;;;;;10.02;3.78;;;15.90;99.90;;;;;;4977976;28;38332;-78
2022/03/18 11:46:16;;;;;;;9.93;3.00;;;16.10;99.90;;;;;;4982532;28;38684;-78
2022/03/18 11:48:44;;;;;;;9.98;3.75;;;16.10;99.90;;;;;;4980180;28;37296;-78
2022/03/18 11:51:37;;;;;;;11.32;2.83;;;16.00;99.90;;;;;;4960767;28;39654;-79
2022/03/18 11:54:25;;;;;;;12.60;4.00;;;16.00;99.90;;;;;;4958674;28;38774;-77
2022/03/18 11:56:55;;;;;;;8.48;3.35;;;15.90;99.90;;;;;;4980280;28;38914;-78
2022/03/18 11:59:25;;;;;;;9.90;2.92;;;15.80;99.90;;;;;;4978510;28;37009;-79
2022/03/18 12:02:00;;;;;;;7.85;3.38;;;15.90;99.90;;;;;;4985609;28;39508;-78
2022/03/18 12:04:40;;;;;;;11.35;3.40;;;16.10;99.90;;;;;;4965808;28;39174;-78
2022/03/18 12:07:28;;;;;;;9.93;3.20;;;16.40;99.90;;;;;;4978353;28;38260;-79
2022/03/18 12:10:08;;;;;;;10.18;3.22;;;16.40;99.90;;;;;;4961580;28;38826;-78
2022/03/18 12:12:48;;;;;;;9.00;3.50;;;16.30;99.90;;;;;;4978683;28;48412;-78
2022/03/18 12:15:20;;;;;;;8.55;3.47;;;15.90;99.90;;;;;;4980094;28;37573;-78
2022/03/18 12:17:47;;;;;;;8.83;3.73;;;15.70;99.90;;;;;;4979586;28;38091;-77
2022/03/18 12:20:24;;;;;;;8.85;3.53;;;15.90;99.90;;;;;;4967286;28;37447;-78
2022/03/18 12:22:52;;;;;;;6.15;3.40;;;15.60;99.90;;;;;;4985089;28;39759;-77
2022/03/18 12:25:20;;;;;;;10.48;3.78;;;15.50;99.90;;;;;;4982732;28;39794;-77
2022/03/18 12:27:46;;;;;;;10.35;3.85;;;15.80;99.90;;;;;;4969931;28;36728;-78
2022/03/18 12:30:23;;;;;;;10.27;4.15;;;16.00;99.90;;;;;;4986335;28;38524;-78
2022/03/18 12:32:54;;;;;;;7.93;3.10;;;16.30;99.90;;;;;;4965490;28;40584;-78
2022/03/18 12:35:32;;;;;;;8.63;3.83;;;16.30;99.90;;;;;;4983659;28;37787;-79
2022/03/18 12:38:15;;;;;;;9.23;3.17;;;16.40;99.90;;;;;;4983233;28;38044;-78
2022/03/18 12:40:56;;;;;;;9.15;3.60;;;16.20;99.90;;;;;;4964396;28;47306;-79
2022/03/18 12:43:24;;;;;;;13.65;3.80;;;16.20;99.90;;;;;;4981647;28;38537;-79
2022/03/18 12:45:50;;;;;;;13.57;3.75;;;16.50;99.90;;;;;;4979396;28;38221;-78
2022/03/18 12:48:19;;;;;;;7.10;3.63;;;16.60;99.90;;;;;;4969919;28;38769;-80
2022/03/18 12:50:48;;;;;;;7.32;3.60;;;16.40;99.90;;;;;;4981936;28;37149;-79
2022/03/18 12:53:22;;;;;;;10.45;3.58;;;16.60;99.90;;;;;;4969980;28;39214;-79
2022/03/18 12:55:51;;;;;;;10.57;3.97;;;16.90;99.90;;;;;;4979143;28;38050;-80
2022/03/18 12:58:18;;;;;;;7.90;3.30;;;17.30;99.90;;;;;;4981049;28;38310;-77
2022/03/18 13:00:50;;;;;;;12.93;4.00;;;17.30;99.90;;;;;;4979962;28;37187;-75
2022/03/18 13:03:23;;;;;;;7.10;3.57;;;17.10;99.90;;;;;;4978529;28;39217;-78
2022/03/18 13:05:52;;;;;;;8.13;3.83;;;17.10;99.90;;;;;;4974894;28;40571;-79
2022/03/18 13:08:19;;;;;;;6.40;3.42;;;17.20;99.90;;;;;;4980588;28;37938;-79
2022/03/18 13:10:57;;;;;;;8.05;3.53;;;17.20;99.90;;;;;;4959943;28;38533;-81